KFLD/FLD METAR and TAF weather

Enter ICAO airport designator
Station Type Date Time Source
KFLD METAR 2020/04/03 07:53 UTC NOAA

KFLD 030753Z AUTO 14007KT 10SM OVC100 07/01 A3008 RMK AO2 SLP189 T00720006


Station Type Date Time Source
KFLD Decoded METAR 2020/04/03 07:53 UTC NOAA

FOND DU LAC COUNTY AIRPORT, WI, United States (KFLD) 43-46N 88-29W 240M
Apr 03, 2020 - 03:53 AM EDT / 2020.04.03 0753 UTC
Wind: from the SE (140 degrees) at 8 MPH (7 KT):0
Visibility: 10 mile(s):0
Sky conditions: overcast
Temperature: 45.0 F (7.2 C)
Dew Point: 33.1 F (0.6 C)
Relative Humidity: 62%
Pressure (altimeter): 30.08 in. Hg (1018 hPa)
ob: KFLD 030753Z AUTO 14007KT 10SM OVC100 07/01 A3008 RMK AO2 SLP189 T00720006
cycle: 8

Station Type Date Time Source
KFLD TAF UTC NOAA

Error!

Example: see airport list